Ashton, South Dakota
Current Conditions -  °F | °C
As of 6:53 PM on Saturday 22 Nov 2014 (Local Time) from KABR Reporting Station
Clear Clear  
Wind Chill: 31°   Ceiling: Unl
Heat Index: 31°   Visibility: 8mi
Dew Point: 29°   Wind: 3mph
Humidity: 92%   Direction: 220°SW
Pressure: 29.39"   Gusts: NA
Location:  44.99°N, 98.5°W
Report Text: KABR 230053Z AUTO 22003KT 8SM CLR M01/M02 A2939 RMK AO2 SLP968 T10061017
Loading
Personal Weather Stations






























Interactive Weather Map New forecast layout! Learn more

10-Day Weather Forecast

Advertisements
Track Severe Weather on mobile